createdAt,value
2018-03-23T00:02:24.941Z,28.23
2018-03-23T00:08:29.551Z,25.73
2018-03-23T00:14:34.396Z,27.77
2018-03-23T00:20:38.890Z,27.20
2018-03-23T00:26:43.483Z,24.50
2018-03-23T00:32:49.748Z,23.67
2018-03-23T00:38:54.481Z,26.00
2018-03-23T00:44:59.841Z,27.47
2018-03-23T00:51:04.353Z,28.40
2018-03-23T00:57:08.857Z,26.57
2018-03-23T01:03:13.545Z,27.87
2018-03-23T01:09:19.630Z,27.57
2018-03-23T01:15:24.165Z,26.77
2018-03-23T01:21:28.900Z,26.97
2018-03-23T01:27:34.317Z,24.83
2018-03-23T01:33:38.872Z,24.80
2018-03-23T01:39:43.462Z,26.17
2018-03-23T01:45:48.213Z,23.33
2018-03-23T01:51:53.619Z,23.07
2018-03-23T01:57:58.277Z,22.17
2018-03-23T02:04:02.866Z,21.27
2018-03-23T02:10:07.400Z,23.93
2018-03-23T02:16:11.985Z,19.80
2018-03-23T02:22:17.737Z,20.70
2018-03-23T02:28:23.236Z,21.60
2018-03-23T02:34:28.101Z,20.23
2018-03-23T02:40:32.860Z,22.73
2018-03-23T02:46:38.230Z,22.70
2018-03-23T02:52:42.719Z,20.97
2018-03-23T02:58:47.603Z,22.57
2018-03-23T03:04:52.879Z,21.57
2018-03-23T03:10:57.423Z,21.23
2018-03-23T03:17:01.927Z,21.33
2018-03-23T03:23:06.585Z,19.53
2018-03-23T03:29:11.081Z,19.60
2018-03-23T03:35:15.904Z,22.43
2018-03-23T03:41:20.898Z,19.63
2018-03-23T03:47:25.696Z,23.13
2018-03-23T03:53:31.023Z,17.17
2018-03-23T03:59:36.402Z,22.63
2018-03-23T04:05:41.027Z,17.60
2018-03-23T04:11:45.903Z,20.97
2018-03-23T04:17:51.231Z,20.50
2018-03-23T04:23:55.862Z,21.40
2018-03-23T04:30:00.534Z,19.80
2018-03-23T04:36:06.241Z,20.03
2018-03-23T04:42:10.907Z,15.50
2018-03-23T04:48:15.489Z,14.87
2018-03-23T04:54:20.586Z,12.63
2018-03-23T05:00:26.146Z,13.43
2018-03-23T05:06:30.685Z,20.10
2018-03-23T05:12:35.351Z,15.80
2018-03-23T05:18:39.914Z,14.60
2018-03-23T05:24:44.699Z,13.67
2018-03-23T05:30:49.296Z,14.20
2018-03-23T05:36:53.906Z,15.60
2018-03-23T05:42:58.481Z,16.57
2018-03-23T05:49:03.145Z,18.23
2018-03-23T05:55:07.790Z,26.93
2018-03-23T06:01:12.441Z,26.17
2018-03-23T06:07:18.717Z,32.33
2018-03-23T06:13:23.335Z,27.97
2018-03-23T06:19:28.271Z,28.13
2018-03-23T06:25:33.858Z,22.67
2018-03-23T06:31:38.507Z,25.97
2018-03-23T06:37:43.853Z,31.43
2018-03-23T06:43:50.076Z,28.63
2018-03-23T06:49:54.703Z,24.47
2018-03-23T06:55:59.260Z,21.10
2018-03-23T07:02:04.762Z,25.90
2018-03-23T07:08:09.358Z,27.60
2018-03-23T07:14:14.079Z,25.90
2018-03-23T07:20:19.765Z,22.43
2018-03-23T07:26:24.313Z,24.40
2018-03-23T07:32:28.961Z,21.87
2018-03-23T07:38:33.575Z,20.13
2018-03-23T07:44:38.355Z,18.43
2018-03-23T07:50:42.937Z,25.23
2018-03-23T07:56:48.256Z,24.07
2018-03-23T08:02:53.048Z,69.80
2018-03-23T08:08:57.561Z,21.60
2018-03-23T08:15:02.932Z,13.70
2018-03-23T08:21:07.544Z,14.00
2018-03-23T08:27:12.102Z,14.57
2018-03-23T08:33:17.414Z,16.00
2018-03-23T08:39:22.304Z,17.03
2018-03-23T08:45:26.821Z,16.40
2018-03-23T08:51:31.655Z,17.63
2018-03-23T08:57:36.202Z,15.33
2018-03-23T09:03:40.853Z,14.03
2018-03-23T09:09:45.404Z,12.47
2018-03-23T09:15:50.120Z,12.90
2018-03-23T09:21:54.743Z,13.30
2018-03-23T09:27:59.258Z,11.00
2018-03-23T09:34:03.869Z,9.83
2018-03-23T09:40:08.384Z,10.90
2018-03-23T09:46:13.162Z,12.47
2018-03-23T09:52:18.357Z,11.70
2018-03-23T09:58:23.691Z,10.50
2018-03-23T10:04:28.414Z,10.47
2018-03-23T10:10:32.983Z,8.30
2018-03-23T10:16:38.750Z,8.77
2018-03-23T10:22:43.241Z,8.93
2018-03-23T10:28:47.972Z,7.47
2018-03-23T10:34:52.592Z,9.50
2018-03-23T10:40:57.121Z,7.73
2018-03-23T10:47:01.675Z,9.37
2018-03-23T10:53:06.250Z,7.03
2018-03-23T10:59:10.962Z,8.77
2018-03-23T11:05:15.944Z,8.83
2018-03-23T11:11:21.828Z,8.20
2018-03-23T11:17:26.480Z,11.67
2018-03-23T11:23:31.071Z,8.37
2018-03-23T11:29:35.799Z,8.60
2018-03-23T11:35:40.514Z,8.67
2018-03-23T11:41:45.138Z,8.73
2018-03-23T11:47:50.929Z,8.80
2018-03-23T11:53:55.499Z,8.73
2018-03-23T12:00:00.459Z,8.30
2018-03-23T12:06:04.966Z,7.83
2018-03-23T12:12:10.356Z,8.70
2018-03-23T12:18:15.057Z,8.60
2018-03-23T12:24:20.353Z,8.47
2018-03-23T12:30:25.026Z,8.10
2018-03-23T12:36:29.871Z,8.93
2018-03-23T12:42:34.369Z,8.30
2018-03-23T12:48:38.885Z,8.37
2018-03-23T12:54:43.559Z,8.90
2018-03-23T13:00:48.585Z,10.30
2018-03-23T13:06:53.439Z,6.20
2018-03-23T13:12:57.923Z,9.57
2018-03-23T13:19:02.411Z,8.13
2018-03-23T13:25:06.944Z,8.73
2018-03-23T13:31:11.504Z,10.60
2018-03-23T13:37:16.480Z,10.73
2018-03-23T13:43:21.951Z,16.10
2018-03-23T13:49:26.433Z,12.17
2018-03-23T13:55:30.987Z,10.27
2018-03-23T14:01:41.547Z,11.37
2018-03-23T14:07:46.527Z,9.63
2018-03-23T14:13:51.264Z,10.40
2018-03-23T14:19:56.539Z,10.80
2018-03-23T14:26:02.041Z,8.93
2018-03-23T14:32:06.895Z,11.37
2018-03-23T14:38:12.430Z,10.77
2018-03-23T14:44:18.590Z,12.23
2018-03-23T14:50:23.253Z,10.97
2018-03-23T14:56:28.698Z,11.20
2018-03-23T15:02:33.396Z,11.00
2018-03-23T15:08:37.973Z,11.37
2018-03-23T15:14:43.456Z,10.50
2018-03-23T15:20:48.113Z,10.37
2018-03-23T15:26:52.719Z,11.57
2018-03-23T15:32:57.245Z,12.57
2018-03-23T15:39:02.660Z,14.00
2018-03-23T15:45:07.956Z,13.80
2018-03-23T15:51:12.479Z,19.20
2018-03-23T15:57:17.589Z,16.33
2018-03-23T16:03:22.460Z,22.43
2018-03-23T16:09:27.312Z,16.00
2018-03-23T16:15:32.764Z,17.07
2018-03-23T16:21:38.873Z,15.63
2018-03-23T16:27:43.530Z,17.10
2018-03-23T16:33:48.806Z,17.43
2018-03-23T16:39:53.947Z,15.60
2018-03-23T16:45:58.592Z,15.27
2018-03-23T16:52:03.126Z,19.20
2018-03-23T16:58:08.567Z,16.17
2018-03-23T17:04:13.084Z,16.40
2018-03-23T17:10:18.710Z,15.67
2018-03-23T17:16:23.393Z,15.60
2018-03-23T17:22:27.876Z,17.60
2018-03-23T17:28:33.139Z,15.50
2018-03-23T17:34:37.643Z,16.80
2018-03-23T17:40:42.312Z,18.63
2018-03-23T17:46:46.900Z,18.07
2018-03-23T17:52:51.432Z,19.97
2018-03-23T17:58:55.943Z,17.40
2018-03-23T18:05:00.608Z,18.23
2018-03-23T18:11:05.975Z,19.90
2018-03-23T18:17:10.524Z,18.43
2018-03-23T18:23:16.460Z,19.30
2018-03-23T18:29:21.211Z,19.43
2018-03-23T18:35:25.761Z,20.73
2018-03-23T18:41:30.670Z,18.87
2018-03-23T18:47:35.211Z,20.13
2018-03-23T18:53:39.855Z,20.57
2018-03-23T18:59:44.581Z,20.40
2018-03-23T19:05:49.667Z,21.47
2018-03-23T19:11:54.231Z,21.07
2018-03-23T19:17:58.770Z,21.80
2018-03-23T19:24:03.266Z,20.37
2018-03-23T19:30:07.838Z,22.57
2018-03-23T19:36:13.073Z,21.90
2018-03-23T19:42:18.134Z,22.30
2018-03-23T19:48:22.653Z,22.07
2018-03-23T19:54:27.325Z,22.33
2018-03-23T20:00:31.899Z,20.37
2018-03-23T20:06:36.573Z,19.40
2018-03-23T20:12:41.190Z,20.70
2018-03-23T20:18:46.650Z,19.37
2018-03-23T20:24:51.321Z,19.57
2018-03-23T20:30:56.319Z,19.93
2018-03-23T20:37:00.785Z,19.40
2018-03-23T20:43:06.030Z,18.67
2018-03-23T20:49:10.595Z,20.03
2018-03-23T20:55:15.338Z,18.93
2018-03-23T21:01:20.526Z,19.90
2018-03-23T21:07:25.159Z,19.00
2018-03-23T21:13:29.628Z,18.80
2018-03-23T21:19:34.224Z,19.23
2018-03-23T21:25:39.015Z,19.27
2018-03-23T21:31:43.472Z,18.87
2018-03-23T21:37:49.718Z,18.83
2018-03-23T21:43:54.497Z,20.53
2018-03-23T21:50:00.101Z,20.60
2018-03-23T21:56:04.582Z,20.97
2018-03-23T22:02:09.146Z,19.00
2018-03-23T22:08:13.745Z,20.60
2018-03-23T22:14:18.358Z,19.43
2018-03-23T22:20:22.903Z,20.30
2018-03-23T22:26:27.419Z,17.60
2018-03-23T22:32:32.738Z,19.40
2018-03-23T22:38:37.559Z,18.77
2018-03-23T22:44:42.338Z,19.23
2018-03-23T22:50:47.219Z,21.27
2018-03-23T22:56:52.155Z,18.77
2018-03-23T23:02:56.696Z,21.70
2018-03-23T23:09:01.197Z,19.37
2018-03-23T23:15:06.446Z,18.83
2018-03-23T23:21:11.145Z,19.33
2018-03-23T23:27:16.443Z,19.30
2018-03-23T23:33:21.359Z,21.27
2018-03-23T23:39:26.112Z,20.83
2018-03-23T23:45:30.683Z,19.47
2018-03-23T23:51:35.607Z,17.67
2018-03-23T23:57:41.039Z,19.77
